createdAt,value
2023-04-17T00:02:01.735Z,9.50
2023-04-17T00:04:28.790Z,9.50
2023-04-17T00:06:55.566Z,9.50
2023-04-17T00:09:22.334Z,9.50
2023-04-17T00:11:49.424Z,9.50
2023-04-17T00:14:16.263Z,9.50
2023-04-17T00:16:43.039Z,9.50
2023-04-17T00:19:09.970Z,9.50
2023-04-17T00:21:36.914Z,9.40
2023-04-17T00:24:03.741Z,9.40
2023-04-17T00:26:32.409Z,9.40
2023-04-17T00:28:59.179Z,9.40
2023-04-17T00:31:26.007Z,9.40
2023-04-17T00:33:52.916Z,9.30
2023-04-17T00:36:19.638Z,9.30
2023-04-17T00:38:46.479Z,9.30
2023-04-17T00:41:13.222Z,9.30
2023-04-17T00:43:40.270Z,9.30
2023-04-17T00:46:11.133Z,9.30
2023-04-17T00:48:38.037Z,9.30
2023-04-17T00:51:04.910Z,9.30
2023-04-17T00:53:38.046Z,9.20
2023-04-17T00:56:05.935Z,9.20
2023-04-17T00:58:33.297Z,9.20
2023-04-17T01:01:00.172Z,9.20
2023-04-17T01:03:29.580Z,9.20
2023-04-17T01:05:56.701Z,9.10
2023-04-17T01:08:23.483Z,9.10
2023-04-17T01:10:52.117Z,9.00
2023-04-17T01:13:19.007Z,9.10
2023-04-17T01:15:46.963Z,9.00
2023-04-17T01:18:13.872Z,9.00
2023-04-17T01:20:40.777Z,9.00
2023-04-17T01:23:07.558Z,9.00
2023-04-17T01:25:34.357Z,9.00
2023-04-17T01:28:01.326Z,9.00
2023-04-17T01:30:29.237Z,9.00
2023-04-17T01:33:07.450Z,9.00
2023-04-17T01:35:34.255Z,9.00
2023-04-17T01:38:01.141Z,9.00
2023-04-17T01:40:27.946Z,9.00
2023-04-17T01:42:54.735Z,9.00
2023-04-17T01:45:24.433Z,8.90
2023-04-17T01:47:51.327Z,8.90
2023-04-17T01:50:21.500Z,8.90
2023-04-17T01:52:48.364Z,8.90
2023-04-17T01:55:18.312Z,8.90
2023-04-17T01:57:51.019Z,8.90
2023-04-17T02:00:21.357Z,8.90
2023-04-17T02:02:48.300Z,8.80
2023-04-17T02:05:23.936Z,8.80
2023-04-17T02:07:51.495Z,8.80
2023-04-17T02:10:18.685Z,8.80
2023-04-17T02:12:45.501Z,8.80
2023-04-17T02:15:12.392Z,8.80
2023-04-17T02:17:39.180Z,8.70
2023-04-17T02:20:09.022Z,8.70
2023-04-17T02:22:35.817Z,8.80
2023-04-17T02:25:02.892Z,8.80
2023-04-17T02:27:29.949Z,8.70
2023-04-17T02:29:56.753Z,8.70
2023-04-17T02:32:23.616Z,8.70
2023-04-17T02:34:51.354Z,8.70
2023-04-17T02:37:18.338Z,8.60
2023-04-17T02:39:45.133Z,8.60
2023-04-17T02:42:13.146Z,8.60
2023-04-17T02:44:41.358Z,8.50
2023-04-17T02:47:08.519Z,8.60
2023-04-17T02:49:35.574Z,8.50
2023-04-17T02:52:02.354Z,8.60
2023-04-17T02:54:29.171Z,8.60
2023-04-17T02:56:58.520Z,8.50
2023-04-17T02:59:26.375Z,8.50
2023-04-17T03:01:53.278Z,8.60
2023-04-17T03:04:22.166Z,8.60
2023-04-17T03:06:49.003Z,8.60
2023-04-17T03:09:15.844Z,8.50
2023-04-17T03:11:42.616Z,8.50
2023-04-17T03:14:09.893Z,8.60
2023-04-17T03:16:36.698Z,8.60
2023-04-17T03:19:03.551Z,8.50
2023-04-17T03:21:31.410Z,8.50
2023-04-17T03:23:58.760Z,8.40
2023-04-17T03:26:25.500Z,8.40
2023-04-17T03:28:52.300Z,8.40
2023-04-17T03:31:19.155Z,8.40
2023-04-17T03:33:46.018Z,8.40
2023-04-17T03:36:13.418Z,8.40
2023-04-17T03:38:40.228Z,8.40
2023-04-17T03:41:08.372Z,8.40
2023-04-17T03:43:35.238Z,8.40
2023-04-17T03:46:02.205Z,8.40
2023-04-17T03:48:29.999Z,8.40
2023-04-17T03:50:57.100Z,8.40
2023-04-17T03:53:24.163Z,8.30
2023-04-17T03:55:51.081Z,8.30
2023-04-17T03:58:28.156Z,8.40
2023-04-17T04:00:55.390Z,8.40
2023-04-17T04:03:25.522Z,8.40
2023-04-17T04:05:52.950Z,8.30
2023-04-17T04:08:19.830Z,8.30
2023-04-17T04:10:51.106Z,8.40
2023-04-17T04:13:22.969Z,8.30
2023-04-17T04:15:55.157Z,8.30
2023-04-17T04:18:25.120Z,8.20
2023-04-17T04:20:52.309Z,8.20
2023-04-17T04:23:27.888Z,8.20
2023-04-17T04:25:57.928Z,8.20
2023-04-17T04:28:32.632Z,8.20
2023-04-17T04:31:02.683Z,8.20
2023-04-17T04:33:35.885Z,8.20
2023-04-17T04:36:03.042Z,8.10
2023-04-17T04:38:32.731Z,8.10
2023-04-17T04:41:10.240Z,8.10
2023-04-17T04:43:38.511Z,8.10
2023-04-17T04:46:07.172Z,8.10
2023-04-17T04:48:39.878Z,8.10
2023-04-17T04:51:08.211Z,8.20
2023-04-17T04:53:35.936Z,8.10
2023-04-17T04:56:02.820Z,8.20
2023-04-17T04:58:31.021Z,8.10
2023-04-17T05:01:00.705Z,8.10
2023-04-17T05:03:34.106Z,8.10
2023-04-17T05:06:01.970Z,8.10
2023-04-17T05:08:37.070Z,8.10
2023-04-17T05:11:10.579Z,8.10
2023-04-17T05:13:37.693Z,8.20
2023-04-17T05:16:06.398Z,8.20
2023-04-17T05:18:33.952Z,8.20
2023-04-17T05:21:00.815Z,8.30
2023-04-17T05:23:35.874Z,8.30
2023-04-17T05:26:06.239Z,8.30
2023-04-17T05:28:34.167Z,8.30
2023-04-17T05:31:04.660Z,8.30
2023-04-17T05:33:36.338Z,8.30
2023-04-17T05:36:05.494Z,8.40
2023-04-17T05:38:35.455Z,8.40
2023-04-17T05:41:08.498Z,8.40
2023-04-17T05:43:38.025Z,8.40
2023-04-17T05:46:06.408Z,8.40
2023-04-17T05:48:33.328Z,8.50
2023-04-17T05:51:00.729Z,8.50
2023-04-17T05:53:30.313Z,8.50
2023-04-17T05:56:05.709Z,8.60
2023-04-17T05:58:36.114Z,8.70
2023-04-17T06:01:06.334Z,8.70
2023-04-17T06:03:34.434Z,8.80
2023-04-17T06:06:23.685Z,8.80
2023-04-17T06:08:54.516Z,8.90
2023-04-17T06:11:24.869Z,8.90
2023-04-17T06:13:53.022Z,8.90
2023-04-17T06:16:21.843Z,8.90
2023-04-17T06:18:49.049Z,8.90
2023-04-17T06:21:15.828Z,8.90
2023-04-17T06:23:42.882Z,8.90
2023-04-17T06:26:10.920Z,9.00
2023-04-17T06:28:38.275Z,9.00
2023-04-17T06:31:05.304Z,9.10
2023-04-17T06:33:32.507Z,9.20
2023-04-17T06:35:59.308Z,9.10
2023-04-17T06:38:36.543Z,9.20
2023-04-17T06:42:00.771Z,9.20
2023-04-17T06:44:38.176Z,9.20
2023-04-17T06:47:12.448Z,9.30
2023-04-17T06:49:39.625Z,9.20
2023-04-17T06:52:06.437Z,9.30
2023-04-17T06:54:33.472Z,9.30
2023-04-17T06:57:00.909Z,9.40
2023-04-17T06:59:27.718Z,9.40
2023-04-17T07:01:59.127Z,9.50
2023-04-17T07:04:26.154Z,9.60
2023-04-17T07:06:53.113Z,9.70
2023-04-17T07:09:19.831Z,9.70
2023-04-17T07:11:58.236Z,9.70
2023-04-17T07:14:25.269Z,9.70
2023-04-17T07:16:54.374Z,9.80
2023-04-17T07:19:21.267Z,9.90
2023-04-17T07:21:51.177Z,9.90
2023-04-17T07:24:18.090Z,10.00
2023-04-17T07:26:47.690Z,10.10
2023-04-17T07:29:20.081Z,10.10
2023-04-17T07:31:48.139Z,10.20
2023-04-17T07:34:15.051Z,10.30
2023-04-17T07:36:41.847Z,10.30
2023-04-17T07:39:08.676Z,10.30
2023-04-17T07:41:35.485Z,10.40
2023-04-17T07:44:05.820Z,10.40
2023-04-17T07:46:32.678Z,10.40
2023-04-17T07:48:59.570Z,10.50
2023-04-17T07:51:26.318Z,10.60
2023-04-17T07:53:53.160Z,10.60
2023-04-17T07:56:20.030Z,10.70
2023-04-17T07:58:46.785Z,10.70
2023-04-17T08:01:22.840Z,10.80
2023-04-17T08:03:51.810Z,10.80
2023-04-17T08:06:18.792Z,10.90
2023-04-17T08:08:50.341Z,11.00
2023-04-17T08:11:17.230Z,11.10
2023-04-17T08:13:44.107Z,11.00
2023-04-17T08:16:10.981Z,11.10
2023-04-17T08:18:39.652Z,11.10
2023-04-17T08:21:08.259Z,11.20
2023-04-17T08:23:35.575Z,11.20
2023-04-17T08:26:05.768Z,11.30
2023-04-17T08:28:33.402Z,11.30
2023-04-17T08:31:01.083Z,11.40
2023-04-17T08:33:34.421Z,11.50
2023-04-17T08:36:03.677Z,11.50
2023-04-17T08:38:32.337Z,11.60
2023-04-17T08:41:03.504Z,11.70
2023-04-17T08:43:31.410Z,11.70
2023-04-17T08:45:58.873Z,11.70
2023-04-17T08:48:26.247Z,11.70
2023-04-17T08:50:53.597Z,11.80
2023-04-17T08:53:20.978Z,12.00
2023-04-17T08:55:48.376Z,12.00
2023-04-17T08:58:15.594Z,12.00
2023-04-17T09:00:43.310Z,12.10
2023-04-17T09:03:11.279Z,12.10
2023-04-17T09:05:40.160Z,12.20
2023-04-17T09:08:07.020Z,12.30
2023-04-17T09:10:44.363Z,12.30
2023-04-17T09:13:14.765Z,12.40
2023-04-17T09:15:42.121Z,12.40
2023-04-17T09:18:45.091Z,12.50
2023-04-17T09:21:13.035Z,12.50
2023-04-17T09:23:50.447Z,12.60
2023-04-17T09:26:22.340Z,12.60
2023-04-17T09:29:04.345Z,12.70
2023-04-17T09:31:36.172Z,12.70
2023-04-17T09:34:07.669Z,12.70
2023-04-17T09:36:41.691Z,12.70
2023-04-17T09:39:24.535Z,12.80
2023-04-17T09:42:01.709Z,12.90
2023-04-17T09:44:37.928Z,13.00
2023-04-17T09:47:04.901Z,13.00
2023-04-17T09:49:38.015Z,13.10
2023-04-17T09:52:06.045Z,13.10
2023-04-17T09:54:39.128Z,13.20
2023-04-17T09:57:10.067Z,13.20
2023-04-17T09:59:50.107Z,13.20
2023-04-17T10:02:18.134Z,13.20
2023-04-17T10:04:45.882Z,13.30
2023-04-17T10:07:13.203Z,13.30
2023-04-17T10:09:45.535Z,13.40
2023-04-17T10:12:17.768Z,13.40
2023-04-17T10:14:49.639Z,13.50
2023-04-17T10:17:24.669Z,13.60
2023-04-17T10:19:51.546Z,13.70
2023-04-17T10:22:18.378Z,13.70
2023-04-17T10:24:45.248Z,13.70
2023-04-17T10:27:27.395Z,13.70
2023-04-17T10:30:04.359Z,13.80
2023-04-17T10:32:32.549Z,13.90
2023-04-17T10:34:59.396Z,13.90
2023-04-17T10:37:45.241Z,13.90
2023-04-17T10:40:14.393Z,13.80
2023-04-17T10:42:41.252Z,13.70
2023-04-17T10:45:18.303Z,13.80
2023-04-17T10:47:57.953Z,13.80
2023-04-17T10:50:28.140Z,13.80
2023-04-17T10:53:01.001Z,13.80
2023-04-17T10:55:28.053Z,13.80
2023-04-17T10:57:54.806Z,13.90
2023-04-17T11:00:29.353Z,13.90
2023-04-17T11:02:58.141Z,13.90
2023-04-17T11:05:25.244Z,14.00
2023-04-17T11:07:52.422Z,14.00
2023-04-17T11:10:20.412Z,14.00
2023-04-17T11:12:51.242Z,14.20
2023-04-17T11:15:32.173Z,14.30
2023-04-17T11:17:59.646Z,14.20
2023-04-17T11:20:45.651Z,14.20
2023-04-17T11:23:19.327Z,14.20
2023-04-17T11:25:47.555Z,14.20
2023-04-17T11:28:14.525Z,14.20
2023-04-17T11:30:50.898Z,14.20
2023-04-17T11:33:17.848Z,14.30
2023-04-17T11:35:44.863Z,14.40
2023-04-17T11:38:11.899Z,14.30
2023-04-17T11:40:43.502Z,14.40
2023-04-17T11:43:11.151Z,14.40
2023-04-17T11:45:42.525Z,14.40
2023-04-17T11:48:13.784Z,14.40
2023-04-17T11:50:42.075Z,14.40
2023-04-17T11:53:12.290Z,14.40
2023-04-17T11:55:39.014Z,14.50
2023-04-17T11:58:06.748Z,14.50
2023-04-17T12:00:34.165Z,14.50
2023-04-17T12:03:02.169Z,14.50
2023-04-17T12:05:30.013Z,14.40
2023-04-17T12:08:06.859Z,14.40
2023-04-17T12:10:41.211Z,14.30
2023-04-17T12:13:09.584Z,14.30
2023-04-17T12:15:40.813Z,14.30
2023-04-17T12:18:10.283Z,14.30
2023-04-17T12:20:40.460Z,14.40
2023-04-17T12:23:07.359Z,14.50
2023-04-17T12:25:34.393Z,14.50
2023-04-17T12:28:04.685Z,14.50
2023-04-17T12:30:32.165Z,14.50
2023-04-17T12:32:59.071Z,14.40
2023-04-17T12:35:26.403Z,14.40
2023-04-17T12:37:53.189Z,14.40
2023-04-17T12:40:23.837Z,14.40
2023-04-17T12:42:51.567Z,14.30
2023-04-17T12:45:20.193Z,14.30
2023-04-17T12:47:47.337Z,14.20
2023-04-17T12:50:14.226Z,14.10
2023-04-17T12:52:41.331Z,14.00
2023-04-17T12:55:08.900Z,14.00
2023-04-17T12:57:36.612Z,14.00
2023-04-17T13:00:05.949Z,14.10
2023-04-17T13:02:33.154Z,14.00
2023-04-17T13:05:00.663Z,14.00
2023-04-17T13:07:28.724Z,14.00
2023-04-17T13:09:55.611Z,14.00
2023-04-17T13:12:22.481Z,14.00
2023-04-17T13:14:49.418Z,14.00
2023-04-17T13:17:17.347Z,14.00
2023-04-17T13:19:44.601Z,14.00
2023-04-17T13:22:12.271Z,14.00
2023-04-17T13:24:39.157Z,14.00
2023-04-17T13:27:06.018Z,14.00
2023-04-17T13:29:32.889Z,13.90
2023-04-17T13:31:59.742Z,13.90
2023-04-17T13:34:26.684Z,13.90
2023-04-17T13:36:54.746Z,13.90
2023-04-17T13:39:21.548Z,13.90
2023-04-17T13:41:48.593Z,13.70
2023-04-17T13:44:16.303Z,13.70
2023-04-17T13:46:44.135Z,13.80
2023-04-17T13:49:11.443Z,13.80
2023-04-17T13:51:38.532Z,13.70
2023-04-17T13:54:05.324Z,13.60
2023-04-17T13:56:32.134Z,13.40
2023-04-17T13:58:58.965Z,13.40
2023-04-17T14:01:25.796Z,13.40
2023-04-17T14:03:52.832Z,13.40
2023-04-17T14:06:19.713Z,13.40
2023-04-17T14:08:46.546Z,13.40
2023-04-17T14:11:13.495Z,13.40
2023-04-17T14:13:40.318Z,13.40
2023-04-17T14:16:07.550Z,13.40
2023-04-17T14:18:34.520Z,13.30
2023-04-17T14:21:10.379Z,13.30
2023-04-17T14:23:37.230Z,13.30
2023-04-17T14:26:04.160Z,13.30
2023-04-17T14:28:30.914Z,13.30
2023-04-17T14:30:57.689Z,13.30
2023-04-17T14:33:25.114Z,13.30
2023-04-17T14:35:53.588Z,13.30
2023-04-17T14:38:20.331Z,13.20
2023-04-17T14:40:47.102Z,13.20
2023-04-17T14:43:13.873Z,13.20
2023-04-17T14:45:40.732Z,13.20
2023-04-17T14:48:07.966Z,13.20
2023-04-17T14:50:34.811Z,13.10
2023-04-17T14:53:01.643Z,13.00
2023-04-17T14:55:28.641Z,13.00
2023-04-17T14:57:55.618Z,13.00
2023-04-17T15:00:22.744Z,13.00
2023-04-17T15:02:49.758Z,13.00
2023-04-17T15:05:18.840Z,13.00
2023-04-17T15:07:46.108Z,12.90
2023-04-17T15:10:13.010Z,12.90
2023-04-17T15:12:39.909Z,13.00
2023-04-17T15:15:10.274Z,13.00
2023-04-17T15:17:40.508Z,13.00
2023-04-17T15:20:07.786Z,12.90
2023-04-17T15:22:34.616Z,12.90
2023-04-17T15:25:01.416Z,12.80
2023-04-17T15:27:28.310Z,12.80
2023-04-17T15:29:56.312Z,12.80
2023-04-17T15:32:23.533Z,12.80
2023-04-17T15:34:50.673Z,12.80
2023-04-17T15:37:17.697Z,12.80
2023-04-17T15:39:44.656Z,12.80
2023-04-17T15:42:12.192Z,12.80
2023-04-17T15:44:39.017Z,12.80
2023-04-17T15:47:06.616Z,12.80
2023-04-17T15:49:33.762Z,12.80
2023-04-17T15:52:00.865Z,12.70
2023-04-17T15:54:28.114Z,12.50
2023-04-17T15:56:55.970Z,12.50
2023-04-17T15:59:23.034Z,12.50
2023-04-17T16:01:50.356Z,12.40
2023-04-17T16:04:19.405Z,12.40
2023-04-17T16:06:46.309Z,12.40
2023-04-17T16:09:14.312Z,12.30
2023-04-17T16:11:41.345Z,12.30
2023-04-17T16:14:08.158Z,12.10
2023-04-17T16:16:35.235Z,12.10
2023-04-17T16:19:02.156Z,12.10
2023-04-17T16:21:33.097Z,12.10
2023-04-17T16:23:59.976Z,12.10
2023-04-17T16:26:29.876Z,12.00
2023-04-17T16:28:58.229Z,11.90
2023-04-17T16:31:28.306Z,11.80
2023-04-17T16:33:55.908Z,11.80
2023-04-17T16:36:22.964Z,11.90
2023-04-17T16:38:49.709Z,11.80
2023-04-17T16:41:16.573Z,11.80
2023-04-17T16:43:43.509Z,11.70
2023-04-17T16:46:22.366Z,11.60
2023-04-17T16:48:51.591Z,11.50
2023-04-17T16:51:20.374Z,11.50
2023-04-17T16:53:48.524Z,11.50
2023-04-17T16:56:15.808Z,11.50
2023-04-17T16:58:42.838Z,11.50
2023-04-17T17:01:09.944Z,11.40
2023-04-17T17:03:37.943Z,11.40
2023-04-17T17:06:07.008Z,11.30
2023-04-17T17:08:33.997Z,11.20
2023-04-17T17:11:03.400Z,11.20
2023-04-17T17:13:30.874Z,11.10
2023-04-17T17:15:57.808Z,11.10
2023-04-17T17:18:24.817Z,11.20
2023-04-17T17:20:54.147Z,11.20
2023-04-17T17:23:21.078Z,11.10
2023-04-17T17:25:54.045Z,11.00
2023-04-17T17:28:39.757Z,10.90
2023-04-17T17:31:47.017Z,10.90
2023-04-17T17:34:26.594Z,10.80
2023-04-17T17:37:00.267Z,10.80
2023-04-17T17:39:33.613Z,10.70
2023-04-17T17:42:13.898Z,10.70
2023-04-17T17:44:44.917Z,10.70
2023-04-17T17:53:01.445Z,10.60
2023-04-17T17:55:40.896Z,10.50
2023-04-17T17:58:16.628Z,10.40
2023-04-17T18:00:57.754Z,10.40
2023-04-17T18:03:30.357Z,10.30
2023-04-17T18:06:08.803Z,10.20
2023-04-17T18:08:50.072Z,10.20
2023-04-17T18:11:24.994Z,10.20
2023-04-17T18:13:59.309Z,10.10
2023-04-17T18:16:38.601Z,10.10
2023-04-17T18:19:29.222Z,10.00
2023-04-17T18:22:09.570Z,9.90
2023-04-17T18:24:45.285Z,9.90
2023-04-17T18:27:44.705Z,9.90
2023-04-17T18:30:39.965Z,10.00
2023-04-17T18:33:32.300Z,10.00
2023-04-17T18:36:04.956Z,9.90
2023-04-17T18:38:37.991Z,9.80
2023-04-17T18:41:12.823Z,9.70
2023-04-17T18:43:40.176Z,9.70
2023-04-17T18:46:12.430Z,9.70
2023-04-17T18:48:41.245Z,9.70
2023-04-17T18:51:16.118Z,9.60
2023-04-17T18:53:52.361Z,9.50
2023-04-17T18:56:24.372Z,9.50
2023-04-17T18:58:55.098Z,9.50
2023-04-17T19:01:25.222Z,9.50
2023-04-17T19:03:57.797Z,9.40
2023-04-17T19:06:26.835Z,9.40
2023-04-17T19:09:02.276Z,9.40
2023-04-17T19:11:39.459Z,9.40
2023-04-17T19:14:22.174Z,9.30
2023-04-17T19:16:57.312Z,9.30
2023-04-17T19:19:25.076Z,9.30
2023-04-17T19:21:56.338Z,9.20
2023-04-17T19:24:31.437Z,9.20
2023-04-17T19:26:59.834Z,9.10
2023-04-17T19:29:29.004Z,9.00
2023-04-17T19:31:56.243Z,9.00
2023-04-17T19:34:23.864Z,9.00
2023-04-17T19:36:50.841Z,9.00
2023-04-17T19:39:17.703Z,8.90
2023-04-17T19:41:50.779Z,8.80
2023-04-17T19:44:18.838Z,8.70
2023-04-17T19:46:45.747Z,8.70
2023-04-17T19:49:12.999Z,8.70
2023-04-17T19:51:40.152Z,8.60
2023-04-17T19:54:07.005Z,8.50
2023-04-17T19:56:33.844Z,8.40
2023-04-17T19:59:04.427Z,8.30
2023-04-17T20:01:31.516Z,8.30
2023-04-17T20:03:59.343Z,8.30
2023-04-17T20:06:26.791Z,8.30
2023-04-17T20:08:53.789Z,8.30
2023-04-17T20:11:20.672Z,8.40
2023-04-17T20:13:47.479Z,8.30
2023-04-17T20:16:14.448Z,8.30
2023-04-17T20:18:43.455Z,8.30
2023-04-17T20:21:12.092Z,8.30
2023-04-17T20:23:41.274Z,8.30
2023-04-17T20:26:08.167Z,8.30
2023-04-17T20:28:37.352Z,8.30
2023-04-17T20:31:04.509Z,8.30
2023-04-17T20:34:05.381Z,8.20
2023-04-17T20:36:45.467Z,8.20
2023-04-17T20:39:12.878Z,8.20
2023-04-17T20:41:40.536Z,8.20
2023-04-17T20:44:10.671Z,8.20
2023-04-17T20:46:48.274Z,8.30
2023-04-17T20:49:15.318Z,8.30
2023-04-17T20:51:42.550Z,8.20
2023-04-17T20:54:09.503Z,8.20
2023-04-17T20:56:36.436Z,8.20
2023-04-17T20:59:07.925Z,8.20
2023-04-17T21:01:39.725Z,8.20
2023-04-17T21:04:10.250Z,8.30
2023-04-17T21:06:39.221Z,8.30
2023-04-17T21:09:13.750Z,8.30
2023-04-17T21:11:40.615Z,8.30
2023-04-17T21:14:11.275Z,8.30
2023-04-17T21:17:01.463Z,8.30
2023-04-17T21:19:36.184Z,8.30
2023-04-17T21:22:03.048Z,8.30
2023-04-17T21:24:29.880Z,8.30
2023-04-17T21:27:02.521Z,8.30
2023-04-17T21:29:29.865Z,8.20
2023-04-17T21:32:02.809Z,8.20
2023-04-17T21:34:36.357Z,8.20
2023-04-17T21:37:22.110Z,8.20
2023-04-17T21:39:58.993Z,8.20
2023-04-17T21:42:40.887Z,8.20
2023-04-17T21:45:10.707Z,8.20
2023-04-17T21:47:40.540Z,8.20
2023-04-17T21:50:24.398Z,8.20
2023-04-17T21:52:54.221Z,8.20
2023-04-17T21:55:21.268Z,8.20
2023-04-17T21:57:51.189Z,8.20
2023-04-17T22:00:23.250Z,8.20
2023-04-17T22:02:53.546Z,8.10
2023-04-17T22:05:21.203Z,8.10
2023-04-17T22:07:54.837Z,8.00
2023-04-17T22:10:27.014Z,8.00
2023-04-17T22:12:54.363Z,8.00
2023-04-17T22:15:26.797Z,8.00
2023-04-17T22:17:54.314Z,8.00
2023-04-17T22:20:23.804Z,8.00
2023-04-17T22:22:53.340Z,8.00
2023-04-17T22:25:25.169Z,8.00
2023-04-17T22:27:55.240Z,8.00
2023-04-17T22:30:27.459Z,8.00
2023-04-17T22:33:00.455Z,7.90
2023-04-17T22:35:30.526Z,7.90
2023-04-17T22:38:00.540Z,7.90
2023-04-17T22:40:29.997Z,7.90
2023-04-17T22:42:59.977Z,8.00
2023-04-17T22:45:27.510Z,7.90
2023-04-17T22:47:57.663Z,8.00
2023-04-17T22:50:27.190Z,7.90
2023-04-17T22:52:56.947Z,7.90
2023-04-17T22:55:24.093Z,7.90
2023-04-17T22:57:54.071Z,7.90
2023-04-17T23:00:25.482Z,7.90
2023-04-17T23:02:53.092Z,7.90
2023-04-17T23:05:20.395Z,7.90
2023-04-17T23:07:48.086Z,7.80
2023-04-17T23:10:20.420Z,7.80
2023-04-17T23:12:47.762Z,7.80
2023-04-17T23:15:14.867Z,7.80
2023-04-17T23:17:41.993Z,7.80
2023-04-17T23:20:12.485Z,7.70
2023-04-17T23:22:44.221Z,7.70
2023-04-17T23:25:13.812Z,7.70
2023-04-17T23:27:44.025Z,7.70
2023-04-17T23:30:12.107Z,7.70
2023-04-17T23:32:45.996Z,7.70
2023-04-17T23:35:14.918Z,7.80
2023-04-17T23:37:50.668Z,7.70
2023-04-17T23:40:29.068Z,7.60
2023-04-17T23:42:59.399Z,7.70
2023-04-17T23:45:29.317Z,7.70
2023-04-17T23:48:01.591Z,7.60
2023-04-17T23:50:47.429Z,7.60
2023-04-17T23:53:15.361Z,7.60
2023-04-17T23:55:42.702Z,7.60
2023-04-17T23:58:10.173Z,7.50
